This is the latest recevied weather packets stored in our database for station/object DJ9MA-10. If no packets are shown the sender has not sent any weather packets the latest 10 day(s).
| Time | Temp. | Humidity | Pressure | Rain* | Wind** | Luminosity | Snow |
|---|---|---|---|---|---|---|---|
| 1777681743 | 13.89° C | 100% | 971.8 hPa | - | - | - | - |
| 1777680843 | 13.89° C | 100% | 971.9 hPa | - | - | - | - |
| 1777679943 | 13.89° C | 100% | 971.9 hPa | - | - | - | - |
| 1777679043 | 14.44° C | 97% | 972.1 hPa | - | - | - | - |
| 1777678143 | 14.44° C | 93% | 972.1 hPa | - | - | - | - |
| 1777677243 | 15° C | 87% | 972.2 hPa | - | - | - | - |
| 1777676343 | 15° C | 83% | 972.2 hPa | - | - | - | - |
| 1777675442 | 15.56° C | 77% | 972.2 hPa | - | - | - | - |
| 1777674543 | 15.56° C | 69% | 972.3 hPa | - | - | - | - |
| 1777673642 | 16.11° C | 67% | 972.4 hPa | - | - | - | - |
| 1777672742 | 16.11° C | 65% | 972.4 hPa | - | - | - | - |
| 1777671842 | 16.67° C | 64% | 972.4 hPa | - | - | - | - |
| 1777670942 | 16.67° C | 62% | 972.3 hPa | - | - | - | - |
| 1777670042 | 17.22° C | 61% | 972.4 hPa | - | - | - | - |
| 1777669142 | 17.22° C | 59% | 972.4 hPa | - | - | - | - |
| 1777668242 | 17.78° C | 58% | 972.5 hPa | - | - | - | - |
| 1777667342 | 17.78° C | 56% | 972.6 hPa | - | - | - | - |
| 1777666442 | 18.33° C | 53% | 972.6 hPa | - | - | - | - |
| 1777665542 | 18.89° C | 52% | 972.5 hPa | - | - | - | - |
| 1777664642 | 18.89° C | 52% | 972.4 hPa | - | - | - | - |
| 1777663742 | 18.89° C | 51% | 972.4 hPa | - | - | - | - |
| 1777662842 | 19.44° C | 50% | 972.4 hPa | - | - | - | - |
| 1777661941 | 20° C | 49% | 972.4 hPa | - | - | - | - |
| 1777661041 | 18.89° C | 51% | 972.3 hPa | - | - | - | - |
| 1777660141 | 18.33° C | 50% | 972.1 hPa | - | - | - | - |
* Rain since midnight (hover to see other rain measurements)
** Current wind speed in m/s (hover to see current wind gust speed)